sensor_id;sensor_type;location;lat;lon;timestamp;pressure;altitude;pressure_sealevel;temperature;humidity
48926;BME280;39838;59.938;30.642;2023-09-08T00:00:56;101379.78;;;12.93;86.65
48926;BME280;39838;59.938;30.642;2023-09-08T00:03:23;101380.66;;;12.93;87.13
48926;BME280;39838;59.938;30.642;2023-09-08T00:05:50;101375.47;;;12.95;87.16
48926;BME280;39838;59.938;30.642;2023-09-08T00:08:18;101367.66;;;12.96;87.41
48926;BME280;39838;59.938;30.642;2023-09-08T00:10:46;101367.66;;;12.96;87.34
48926;BME280;39838;59.938;30.642;2023-09-08T00:13:14;101371.13;;;12.97;87.38
48926;BME280;39838;59.938;30.642;2023-09-08T00:15:42;101378.09;;;12.98;87.20
48926;BME280;39838;59.938;30.642;2023-09-08T00:18:09;101365.91;;;12.98;87.35
48926;BME280;39838;59.938;30.642;2023-09-08T00:20:37;101362.47;;;13.02;87.52
48926;BME280;39838;59.938;30.642;2023-09-08T00:23:05;101365.06;;;13.04;87.24
48926;BME280;39838;59.938;30.642;2023-09-08T00:25:32;101364.19;;;13.06;87.39
48926;BME280;39838;59.938;30.642;2023-09-08T00:28:00;101357.28;;;13.10;87.36
48926;BME280;39838;59.938;30.642;2023-09-08T00:30:29;101347.69;;;13.10;87.08
48926;BME280;39838;59.938;30.642;2023-09-08T00:32:56;101356.41;;;13.11;87.01
48926;BME280;39838;59.938;30.642;2023-09-08T00:35:23;101349.44;;;13.11;87.01
48926;BME280;39838;59.938;30.642;2023-09-08T00:37:51;101352.03;;;13.11;86.61
48926;BME280;39838;59.938;30.642;2023-09-08T00:40:18;101349.44;;;13.10;86.64
48926;BME280;39838;59.938;30.642;2023-09-08T00:42:45;101352.06;;;13.08;86.92
48926;BME280;39838;59.938;30.642;2023-09-08T00:45:13;101352.03;;;13.05;86.70
48926;BME280;39838;59.938;30.642;2023-09-08T00:47:42;101352.03;;;13.01;86.84
48926;BME280;39838;59.938;30.642;2023-09-08T00:50:10;101348.53;;;12.99;87.29
48926;BME280;39838;59.938;30.642;2023-09-08T00:52:38;101352.88;;;13.00;87.20
48926;BME280;39838;59.938;30.642;2023-09-08T00:55:06;101348.53;;;13.00;87.10
48926;BME280;39838;59.938;30.642;2023-09-08T00:57:33;101344.22;;;13.01;86.64
48926;BME280;39838;59.938;30.642;2023-09-08T01:00:02;101351.16;;;13.02;86.56
48926;BME280;39838;59.938;30.642;2023-09-08T01:02:32;101343.34;;;13.02;86.86
48926;BME280;39838;59.938;30.642;2023-09-08T01:05:01;101336.34;;;12.99;86.81
48926;BME280;39838;59.938;30.642;2023-09-08T01:07:31;101338.97;;;12.98;86.59
48926;BME280;39838;59.938;30.642;2023-09-08T01:09:59;101338.09;;;12.97;87.08
48926;BME280;39838;59.938;30.642;2023-09-08T01:12:31;101337.22;;;12.95;86.76
48926;BME280;39838;59.938;30.642;2023-09-08T01:14:58;101338.94;;;12.92;86.91
48926;BME280;39838;59.938;30.642;2023-09-08T01:17:26;101348.50;;;12.90;87.22
48926;BME280;39838;59.938;30.642;2023-09-08T01:19:56;101345.91;;;12.88;87.48
48926;BME280;39838;59.938;30.642;2023-09-08T01:22:37;101337.19;;;12.84;87.59
48926;BME280;39838;59.938;30.642;2023-09-08T01:25:21;101337.19;;;12.81;87.54
48926;BME280;39838;59.938;30.642;2023-09-08T01:27:52;101339.75;;;12.80;87.90
48926;BME280;39838;59.938;30.642;2023-09-08T01:30:21;101334.56;;;12.83;87.98
48926;BME280;39838;59.938;30.642;2023-09-08T01:32:49;101334.56;;;12.83;87.99
48926;BME280;39838;59.938;30.642;2023-09-08T01:35:17;101332.81;;;12.83;88.22
48926;BME280;39838;59.938;30.642;2023-09-08T01:37:45;101335.44;;;12.85;88.36
48926;BME280;39838;59.938;30.642;2023-09-08T01:40:13;101330.22;;;12.83;88.38
48926;BME280;39838;59.938;30.642;2023-09-08T01:42:42;101325.88;;;12.82;88.39
48926;BME280;39838;59.938;30.642;2023-09-08T01:45:09;101327.59;;;12.83;88.72
48926;BME280;39838;59.938;30.642;2023-09-08T01:47:37;101320.66;;;12.85;88.22
48926;BME280;39838;59.938;30.642;2023-09-08T01:50:05;101320.69;;;12.87;88.80
48926;BME280;39838;59.938;30.642;2023-09-08T01:52:33;101319.81;;;12.90;88.61
48926;BME280;39838;59.938;30.642;2023-09-08T01:55:00;101319.84;;;12.94;88.23
48926;BME280;39838;59.938;30.642;2023-09-08T01:57:30;101320.72;;;12.96;88.34
48926;BME280;39838;59.938;30.642;2023-09-08T01:59:59;101315.50;;;13.02;88.24
48926;BME280;39838;59.938;30.642;2023-09-08T02:02:26;101323.31;;;13.07;88.22
48926;BME280;39838;59.938;30.642;2023-09-08T02:04:53;101318.13;;;13.13;88.33
48926;BME280;39838;59.938;30.642;2023-09-08T02:07:21;101304.25;;;13.16;88.21
48926;BME280;39838;59.938;30.642;2023-09-08T02:09:48;101314.69;;;13.20;87.85
48926;BME280;39838;59.938;30.642;2023-09-08T02:12:16;101301.69;;;13.23;87.59
48926;BME280;39838;59.938;30.642;2023-09-08T02:14:43;101299.06;;;13.25;87.77
48926;BME280;39838;59.938;30.642;2023-09-08T02:17:12;101307.75;;;13.27;87.80
48926;BME280;39838;59.938;30.642;2023-09-08T02:19:39;101299.06;;;13.25;88.04
48926;BME280;39838;59.938;30.642;2023-09-08T02:22:07;101305.13;;;13.21;87.76
48926;BME280;39838;59.938;30.642;2023-09-08T02:24:34;101300.81;;;13.21;88.06
48926;BME280;39838;59.938;30.642;2023-09-08T02:27:02;101296.47;;;13.22;88.21
48926;BME280;39838;59.938;30.642;2023-09-08T02:29:29;101296.44;;;13.20;88.61
48926;BME280;39838;59.938;30.642;2023-09-08T02:31:58;101297.28;;;13.19;88.63
48926;BME280;39838;59.938;30.642;2023-09-08T02:34:26;101299.00;;;13.19;88.68
48926;BME280;39838;59.938;30.642;2023-09-08T02:36:54;101295.53;;;13.18;88.76
48926;BME280;39838;59.938;30.642;2023-09-08T02:39:21;101297.28;;;13.18;88.81
48926;BME280;39838;59.938;30.642;2023-09-08T02:41:49;101286.03;;;13.22;89.13
48926;BME280;39838;59.938;30.642;2023-09-08T02:44:16;101285.13;;;13.27;88.88
48926;BME280;39838;59.938;30.642;2023-09-08T02:46:44;101288.63;;;13.34;89.11
48926;BME280;39838;59.938;30.642;2023-09-08T02:49:11;101284.28;;;13.37;88.71
48926;BME280;39838;59.938;30.642;2023-09-08T02:51:40;101285.19;;;13.43;89.16
48926;BME280;39838;59.938;30.642;2023-09-08T02:54:07;101284.31;;;13.44;89.35
48926;BME280;39838;59.938;30.642;2023-09-08T02:56:34;101273.84;;;13.45;89.01
48926;BME280;39838;59.938;30.642;2023-09-08T02:59:02;101277.34;;;13.44;88.67
48926;BME280;39838;59.938;30.642;2023-09-08T03:01:29;101279.94;;;13.41;89.14
48926;BME280;39838;59.938;30.642;2023-09-08T03:03:57;101266.91;;;13.36;89.30
48926;BME280;39838;59.938;30.642;2023-09-08T03:06:24;101267.75;;;13.34;88.95
48926;BME280;39838;59.938;30.642;2023-09-08T03:08:53;101254.72;;;13.28;89.66
48926;BME280;39838;59.938;30.642;2023-09-08T03:11:21;101264.28;;;13.30;89.87
48926;BME280;39838;59.938;30.642;2023-09-08T03:13:48;101263.41;;;13.30;89.59
48926;BME280;39838;59.938;30.642;2023-09-08T03:16:15;101258.19;;;13.28;89.75
48926;BME280;39838;59.938;30.642;2023-09-08T03:18:43;101248.59;;;13.27;89.86
48926;BME280;39838;59.938;30.642;2023-09-08T03:21:13;101244.28;;;13.28;90.05
48926;BME280;39838;59.938;30.642;2023-09-08T03:23:42;101247.75;;;13.33;90.32
48926;BME280;39838;59.938;30.642;2023-09-08T03:26:11;101248.59;;;13.33;90.08
48926;BME280;39838;59.938;30.642;2023-09-08T03:28:39;101248.63;;;13.32;90.10
48926;BME280;39838;59.938;30.642;2023-09-08T03:31:06;101249.47;;;13.32;90.32
48926;BME280;39838;59.938;30.642;2023-09-08T03:33:34;101250.38;;;13.34;90.33
48926;BME280;39838;59.938;30.642;2023-09-08T03:36:01;101253.84;;;13.36;90.67
48926;BME280;39838;59.938;30.642;2023-09-08T03:38:29;101253.84;;;13.38;90.28
48926;BME280;39838;59.938;30.642;2023-09-08T03:40:56;101248.63;;;13.43;90.78
48926;BME280;39838;59.938;30.642;2023-09-08T03:43:25;101244.25;;;13.48;90.71
48926;BME280;39838;59.938;30.642;2023-09-08T03:45:52;101243.41;;;13.52;90.31
48926;BME280;39838;59.938;30.642;2023-09-08T03:48:20;101248.63;;;13.58;90.73
48926;BME280;39838;59.938;30.642;2023-09-08T03:50:47;101249.47;;;13.61;90.60
48926;BME280;39838;59.938;30.642;2023-09-08T03:53:14;101250.34;;;13.65;90.19
48926;BME280;39838;59.938;30.642;2023-09-08T03:55:42;101248.63;;;13.70;89.95
48926;BME280;39838;59.938;30.642;2023-09-08T03:58:09;101252.97;;;13.76;89.88
48926;BME280;39838;59.938;30.642;2023-09-08T04:00:38;101254.69;;;13.80;89.79
48926;BME280;39838;59.938;30.642;2023-09-08T04:03:05;101250.34;;;13.82;90.12
48926;BME280;39838;59.938;30.642;2023-09-08T04:05:32;101226.84;;;13.73;89.79
48926;BME280;39838;59.938;30.642;2023-09-08T04:08:00;101243.38;;;13.84;90.06
48926;BME280;39838;59.938;30.642;2023-09-08T04:10:27;101251.19;;;13.87;89.62
48926;BME280;39838;59.938;30.642;2023-09-08T04:12:54;101253.81;;;13.91;89.97
48926;BME280;39838;59.938;30.642;2023-09-08T04:15:22;101252.03;;;13.95;89.79
48926;BME280;39838;59.938;30.642;2023-09-08T04:17:50;101252.94;;;13.97;89.62
48926;BME280;39838;59.938;30.642;2023-09-08T04:20:18;101259.00;;;14.01;89.25
48926;BME280;39838;59.938;30.642;2023-09-08T04:22:45;101251.19;;;14.02;89.48
48926;BME280;39838;59.938;30.642;2023-09-08T04:25:13;101252.91;;;14.02;89.34
48926;BME280;39838;59.938;30.642;2023-09-08T04:27:41;101244.19;;;14.01;89.04
48926;BME280;39838;59.938;30.642;2023-09-08T04:30:08;101248.56;;;14.05;89.07
48926;BME280;39838;59.938;30.642;2023-09-08T04:32:36;101245.06;;;14.11;89.25
48926;BME280;39838;59.938;30.642;2023-09-08T04:35:06;101242.41;;;14.15;89.17
48926;BME280;39838;59.938;30.642;2023-09-08T04:37:33;101244.19;;;14.16;88.95
48926;BME280;39838;59.938;30.642;2023-09-08T04:40:02;101243.28;;;14.19;88.98
48926;BME280;39838;59.938;30.642;2023-09-08T04:42:30;101238.94;;;14.24;89.00
48926;BME280;39838;59.938;30.642;2023-09-08T04:44:57;101230.16;;;14.33;88.92
48926;BME280;39838;59.938;30.642;2023-09-08T04:47:25;101232.75;;;14.42;88.77
48926;BME280;39838;59.938;30.642;2023-09-08T04:49:52;101228.38;;;14.45;88.32
48926;BME280;39838;59.938;30.642;2023-09-08T04:52:21;101227.47;;;14.56;88.30
48926;BME280;39838;59.938;30.642;2023-09-08T04:54:48;101222.25;;;14.63;88.02
48926;BME280;39838;59.938;30.642;2023-09-08T04:57:15;101234.34;;;14.77;88.18
48926;BME280;39838;59.938;30.642;2023-09-08T04:59:43;101226.47;;;14.86;87.50
48926;BME280;39838;59.938;30.642;2023-09-08T05:02:10;101228.16;;;14.93;87.04
48926;BME280;39838;59.938;30.642;2023-09-08T05:04:38;101229.84;;;14.97;87.09
48926;BME280;39838;59.938;30.642;2023-09-08T05:07:05;101228.09;;;15.05;86.31
48926;BME280;39838;59.938;30.642;2023-09-08T05:09:34;101226.28;;;15.10;86.53
48926;BME280;39838;59.938;30.642;2023-09-08T05:12:03;101211.50;;;15.05;86.15
48926;BME280;39838;59.938;30.642;2023-09-08T05:14:31;101234.94;;;15.24;86.16
48926;BME280;39838;59.938;30.642;2023-09-08T05:16:58;101220.03;;;15.31;85.82
48926;BME280;39838;59.938;30.642;2023-09-08T05:19:26;101219.97;;;15.36;85.58
48926;BME280;39838;59.938;30.642;2023-09-08T05:21:54;101206.94;;;15.31;85.29
48926;BME280;39838;59.938;30.642;2023-09-08T05:24:21;101226.88;;;15.46;85.31
48926;BME280;39838;59.938;30.642;2023-09-08T05:26:53;101232.91;;;15.55;85.32
48926;BME280;39838;59.938;30.642;2023-09-08T05:29:20;101234.56;;;15.72;85.21
48926;BME280;39838;59.938;30.642;2023-09-08T05:31:47;101229.13;;;15.89;84.53
48926;BME280;39838;59.938;30.642;2023-09-08T05:34:15;101230.75;;;16.02;83.91
48926;BME280;39838;59.938;30.642;2023-09-08T05:36:42;101227.94;;;16.17;83.68
48926;BME280;39838;59.938;30.642;2023-09-08T05:39:10;101229.47;;;16.36;83.04
48926;BME280;39838;59.938;30.642;2023-09-08T05:41:39;101224.84;;;16.55;82.50
48926;BME280;39838;59.938;30.642;2023-09-08T05:44:08;101232.50;;;16.75;81.83
48926;BME280;39838;59.938;30.642;2023-09-08T05:46:35;101229.69;;;16.86;81.12
48926;BME280;39838;59.938;30.642;2023-09-08T05:49:03;101230.50;;;16.91;80.59
48926;BME280;39838;59.938;30.642;2023-09-08T05:51:31;101234.84;;;16.92;80.52
48926;BME280;39838;59.938;30.642;2023-09-08T05:53:58;101232.19;;;16.97;80.77
48926;BME280;39838;59.938;30.642;2023-09-08T05:56:29;101235.53;;;17.06;80.65
48926;BME280;39838;59.938;30.642;2023-09-08T05:58:57;101223.97;;;17.18;80.38
48926;BME280;39838;59.938;30.642;2023-09-08T06:01:25;101222.09;;;17.26;80.02
48926;BME280;39838;59.938;30.642;2023-09-08T06:03:53;101225.41;;;17.37;79.69
48926;BME280;39838;59.938;30.642;2023-09-08T06:06:20;101215.66;;;17.44;79.67
48926;BME280;39838;59.938;30.642;2023-09-08T06:08:48;101205.94;;;17.51;79.39
48926;BME280;39838;59.938;30.642;2023-09-08T06:11:15;101212.81;;;17.58;79.03
48926;BME280;39838;59.938;30.642;2023-09-08T06:13:42;101206.63;;;17.60;78.80
48926;BME280;39838;59.938;30.642;2023-09-08T06:16:10;101212.81;;;17.58;78.82
48926;BME280;39838;59.938;30.642;2023-09-08T06:18:38;101209.25;;;17.60;78.82
48926;BME280;39838;59.938;30.642;2023-09-08T06:21:07;101206.66;;;17.59;78.76
48926;BME280;39838;59.938;30.642;2023-09-08T06:23:34;101208.38;;;17.61;78.97
48926;BME280;39838;59.938;30.642;2023-09-08T06:26:02;101216.22;;;17.63;78.94
48926;BME280;39838;59.938;30.642;2023-09-08T06:28:29;101210.94;;;17.64;78.77
48926;BME280;39838;59.938;30.642;2023-09-08T06:30:57;101209.09;;;17.71;78.87
48926;BME280;39838;59.938;30.642;2023-09-08T06:33:24;101209.84;;;17.78;78.79
48926;BME280;39838;59.938;30.642;2023-09-08T06:35:53;101203.66;;;17.82;78.32
48926;BME280;39838;59.938;30.642;2023-09-08T06:38:20;101186.00;;;17.87;78.16
48926;BME280;39838;59.938;30.642;2023-09-08T06:40:48;101203.47;;;17.91;77.48
48926;BME280;39838;59.938;30.642;2023-09-08T06:43:18;101199.88;;;17.95;77.03
48926;BME280;39838;59.938;30.642;2023-09-08T06:45:47;101201.50;;;18.00;76.51
48926;BME280;39838;59.938;30.642;2023-09-08T06:48:15;101209.31;;;18.05;76.28
48926;BME280;39838;59.938;30.642;2023-09-08T06:50:42;101207.41;;;18.13;75.94
48926;BME280;39838;59.938;30.642;2023-09-08T06:53:11;101206.34;;;18.22;75.79
48926;BME280;39838;59.938;30.642;2023-09-08T06:55:38;101215.72;;;18.37;75.64
48926;BME280;39838;59.938;30.642;2023-09-08T06:58:06;101219.81;;;18.48;75.05
48926;BME280;39838;59.938;30.642;2023-09-08T07:00:33;101212.50;;;18.63;74.59
48926;BME280;39838;59.938;30.642;2023-09-08T07:03:00;101209.75;;;18.70;74.05
48926;BME280;39838;59.938;30.642;2023-09-08T07:05:28;101193.16;;;18.67;73.88
48926;BME280;39838;59.938;30.642;2023-09-08T07:07:55;101192.84;;;18.80;73.60
48926;BME280;39838;59.938;30.642;2023-09-08T07:10:24;101196.19;;;18.87;72.90
48926;BME280;39838;59.938;30.642;2023-09-08T07:12:51;101181.19;;;18.91;72.78
48926;BME280;39838;59.938;30.642;2023-09-08T07:15:18;101182.84;;;18.95;72.30
48926;BME280;39838;59.938;30.642;2023-09-08T07:17:46;101191.72;;;18.91;72.09
48926;BME280;39838;59.938;30.642;2023-09-08T07:20:13;101182.13;;;18.88;72.21
48926;BME280;39838;59.938;30.642;2023-09-08T07:22:40;101183.84;;;18.91;72.08
48926;BME280;39838;59.938;30.642;2023-09-08T07:25:08;101174.19;;;18.90;72.12
48926;BME280;39838;59.938;30.642;2023-09-08T07:27:37;101181.97;;;18.94;71.97
48926;BME280;39838;59.938;30.642;2023-09-08T07:30:05;101186.16;;;19.03;71.63
48926;BME280;39838;59.938;30.642;2023-09-08T07:32:33;101179.06;;;19.06;71.03
48926;BME280;39838;59.938;30.642;2023-09-08T07:35:00;101180.53;;;19.17;71.41
48926;BME280;39838;59.938;30.642;2023-09-08T07:37:29;101179.34;;;19.30;70.29
48926;BME280;39838;59.938;30.642;2023-09-08T07:39:57;101173.72;;;19.44;69.51
48926;BME280;39838;59.938;30.642;2023-09-08T07:42:24;101177.78;;;19.58;69.23
48926;BME280;39838;59.938;30.642;2023-09-08T07:44:54;101184.72;;;19.61;67.77
48926;BME280;39838;59.938;30.642;2023-09-08T07:47:21;101181.28;;;19.57;67.70
48926;BME280;39838;59.938;30.642;2023-09-08T07:49:49;101173.44;;;19.54;67.39
48926;BME280;39838;59.938;30.642;2023-09-08T07:52:16;101176.94;;;19.55;67.38
48926;BME280;39838;59.938;30.642;2023-09-08T07:54:43;101172.34;;;19.63;67.58
48926;BME280;39838;59.938;30.642;2023-09-08T07:57:11;101176.69;;;19.66;67.28
48926;BME280;39838;59.938;30.642;2023-09-08T07:59:38;101173.19;;;19.65;66.87
48926;BME280;39838;59.938;30.642;2023-09-08T08:02:07;101182.09;;;19.61;66.13
48926;BME280;39838;59.938;30.642;2023-09-08T08:04:34;101171.53;;;19.61;65.97
48926;BME280;39838;59.938;30.642;2023-09-08T08:07:01;101168.78;;;19.66;65.66
48926;BME280;39838;59.938;30.642;2023-09-08T08:09:29;101174.63;;;19.77;65.76
48926;BME280;39838;59.938;30.642;2023-09-08T08:11:56;101177.78;;;19.89;65.54
48926;BME280;39838;59.938;30.642;2023-09-08T08:14:23;101179.28;;;19.98;65.47
48926;BME280;39838;59.938;30.642;2023-09-08T08:16:51;101179.91;;;20.08;65.31
48926;BME280;39838;59.938;30.642;2023-09-08T08:19:20;101180.19;;;20.28;64.66
48926;BME280;39838;59.938;30.642;2023-09-08T08:21:47;101184.75;;;20.54;64.46
48926;BME280;39838;59.938;30.642;2023-09-08T08:24:14;101183.28;;;20.72;63.10
48926;BME280;39838;59.938;30.642;2023-09-08T08:26:42;101183.28;;;20.72;62.36
48926;BME280;39838;59.938;30.642;2023-09-08T08:29:09;101186.22;;;20.63;62.34
48926;BME280;39838;59.938;30.642;2023-09-08T08:31:36;101181.63;;;20.40;62.48
48926;BME280;39838;59.938;30.642;2023-09-08T08:34:04;101177.34;;;20.36;62.22
48926;BME280;39838;59.938;30.642;2023-09-08T08:36:32;101181.88;;;20.31;62.20
48926;BME280;39838;59.938;30.642;2023-09-08T08:39:00;101183.25;;;20.14;61.03
48926;BME280;39838;59.938;30.642;2023-09-08T08:41:29;101175.22;;;20.17;61.82
48926;BME280;39838;59.938;30.642;2023-09-08T08:43:56;101168.66;;;20.32;62.21
48926;BME280;39838;59.938;30.642;2023-09-08T08:46:26;101172.66;;;20.45;61.56
48926;BME280;39838;59.938;30.642;2023-09-08T08:48:54;101173.16;;;20.58;61.50
48926;BME280;39838;59.938;30.642;2023-09-08T08:51:23;101167.00;;;20.58;60.93
48926;BME280;39838;59.938;30.642;2023-09-08T08:53:52;101177.72;;;20.53;60.00
48926;BME280;39838;59.938;30.642;2023-09-08T08:56:20;101174.22;;;20.53;59.42
48926;BME280;39838;59.938;30.642;2023-09-08T08:58:49;101178.06;;;20.41;59.79
48926;BME280;39838;59.938;30.642;2023-09-08T09:01:17;101162.50;;;20.32;60.58
48926;BME280;39838;59.938;30.642;2023-09-08T09:03:49;101165.09;;;20.33;61.06
48926;BME280;39838;59.938;30.642;2023-09-08T09:06:17;101168.44;;;20.40;60.42
48926;BME280;39838;59.938;30.642;2023-09-08T09:08:45;101163.69;;;20.53;59.86
48926;BME280;39838;59.938;30.642;2023-09-08T09:11:14;101165.16;;;20.61;59.64
48926;BME280;39838;59.938;30.642;2023-09-08T09:13:42;101163.03;;;20.72;59.40
48926;BME280;39838;59.938;30.642;2023-09-08T09:16:10;101156.69;;;20.78;59.53
48926;BME280;39838;59.938;30.642;2023-09-08T09:18:53;101162.63;;;20.85;59.32
48926;BME280;39838;59.938;30.642;2023-09-08T09:21:21;101161.69;;;20.87;58.04
48926;BME280;39838;59.938;30.642;2023-09-08T09:23:48;101149.44;;;20.85;58.05
48926;BME280;39838;59.938;30.642;2023-09-08T09:26:25;101154.91;;;20.79;58.16
48926;BME280;39838;59.938;30.642;2023-09-08T09:28:52;101161.94;;;20.80;57.87
48926;BME280;39838;59.938;30.642;2023-09-08T09:31:23;101168.13;;;20.79;57.36
48926;BME280;39838;59.938;30.642;2023-09-08T09:34:06;101162.16;;;20.72;57.55
48926;BME280;39838;59.938;30.642;2023-09-08T09:36:33;101166.31;;;20.81;57.39
48926;BME280;39838;59.938;30.642;2023-09-08T09:39:01;101156.66;;;20.80;57.33
48926;BME280;39838;59.938;30.642;2023-09-08T09:41:30;101159.97;;;20.86;57.29
48926;BME280;39838;59.938;30.642;2023-09-08T09:43:58;101165.19;;;20.88;57.50
48926;BME280;39838;59.938;30.642;2023-09-08T09:46:27;101150.41;;;20.82;56.50
48926;BME280;39838;59.938;30.642;2023-09-08T09:48:55;101160.00;;;20.85;55.30
48926;BME280;39838;59.938;30.642;2023-09-08T09:51:23;101159.00;;;20.89;54.79
48926;BME280;39838;59.938;30.642;2023-09-08T09:53:50;101163.38;;;20.90;55.37
48926;BME280;39838;59.938;30.642;2023-09-08T09:56:18;101163.91;;;20.99;55.22
48926;BME280;39838;59.938;30.642;2023-09-08T09:58:48;101159.59;;;20.97;54.20
48926;BME280;39838;59.938;30.642;2023-09-08T10:01:16;101165.88;;;20.93;54.65
48926;BME280;39838;59.938;30.642;2023-09-08T10:03:44;101165.09;;;20.91;53.75
48926;BME280;39838;59.938;30.642;2023-09-08T10:06:12;101168.78;;;20.85;52.88
48926;BME280;39838;59.938;30.642;2023-09-08T10:08:42;101168.16;;;20.77;52.87
48926;BME280;39838;59.938;30.642;2023-09-08T10:11:11;101167.44;;;20.72;53.16
48926;BME280;39838;59.938;30.642;2023-09-08T10:13:44;101171.97;;;20.68;53.55
48926;BME280;39838;59.938;30.642;2023-09-08T10:16:16;101170.06;;;20.74;53.91
48926;BME280;39838;59.938;30.642;2023-09-08T10:18:47;101168.75;;;20.87;53.98
48926;BME280;39838;59.938;30.642;2023-09-08T10:21:16;101168.91;;;21.09;53.35
48926;BME280;39838;59.938;30.642;2023-09-08T10:23:49;101158.28;;;21.10;52.52
48926;BME280;39838;59.938;30.642;2023-09-08T10:26:25;101170.13;;;21.25;52.45
48926;BME280;39838;59.938;30.642;2023-09-08T10:28:54;101166.31;;;21.35;51.52
48926;BME280;39838;59.938;30.642;2023-09-08T10:31:25;101170.06;;;21.28;51.00
48926;BME280;39838;59.938;30.642;2023-09-08T10:33:54;101170.31;;;21.20;51.25
48926;BME280;39838;59.938;30.642;2023-09-08T10:36:22;101181.81;;;21.18;50.73
48926;BME280;39838;59.938;30.642;2023-09-08T10:38:50;101182.94;;;21.11;51.36
48926;BME280;39838;59.938;30.642;2023-09-08T10:41:28;101174.25;;;21.07;51.33
48926;BME280;39838;59.938;30.642;2023-09-08T10:44:01;101162.38;;;20.92;52.08
48926;BME280;39838;59.938;30.642;2023-09-08T10:46:32;101182.22;;;21.06;51.78
48926;BME280;39838;59.938;30.642;2023-09-08T10:49:02;101176.91;;;21.07;51.90
48926;BME280;39838;59.938;30.642;2023-09-08T10:51:30;101174.03;;;21.13;51.40
48926;BME280;39838;59.938;30.642;2023-09-08T10:53:58;101167.69;;;21.19;51.56
48926;BME280;39838;59.938;30.642;2023-09-08T10:56:46;101146.66;;;21.16;51.82
48926;BME280;39838;59.938;30.642;2023-09-08T10:59:15;101164.34;;;21.40;51.69
48926;BME280;39838;59.938;30.642;2023-09-08T11:01:44;101170.28;;;21.47;51.17
48926;BME280;39838;59.938;30.642;2023-09-08T11:04:12;101170.13;;;21.51;50.92
48926;BME280;39838;59.938;30.642;2023-09-08T11:06:44;101167.13;;;21.62;51.20
48926;BME280;39838;59.938;30.642;2023-09-08T11:09:11;101174.94;;;21.65;51.04
48926;BME280;39838;59.938;30.642;2023-09-08T11:11:40;101166.72;;;21.73;51.36
48926;BME280;39838;59.938;30.642;2023-09-08T11:14:07;101161.34;;;21.76;50.61
48926;BME280;39838;59.938;30.642;2023-09-08T11:16:34;101168.44;;;21.74;50.89
48926;BME280;39838;59.938;30.642;2023-09-08T11:19:03;101168.50;;;21.72;50.61
48926;BME280;39838;59.938;30.642;2023-09-08T11:21:31;101159.34;;;21.83;50.88
48926;BME280;39838;59.938;30.642;2023-09-08T11:24:01;101165.09;;;21.94;50.68
48926;BME280;39838;59.938;30.642;2023-09-08T11:26:32;101159.22;;;21.86;48.62
48926;BME280;39838;59.938;30.642;2023-09-08T11:29:00;101173.91;;;21.69;49.34
48926;BME280;39838;59.938;30.642;2023-09-08T11:31:27;101177.09;;;21.54;49.36
48926;BME280;39838;59.938;30.642;2023-09-08T11:33:55;101167.97;;;21.38;49.40
48926;BME280;39838;59.938;30.642;2023-09-08T11:36:24;101170.88;;;21.30;49.56
48926;BME280;39838;59.938;30.642;2023-09-08T11:38:52;101168.66;;;21.16;49.59
48926;BME280;39838;59.938;30.642;2023-09-08T11:41:19;101174.91;;;21.14;49.90
48926;BME280;39838;59.938;30.642;2023-09-08T11:43:49;101166.34;;;21.06;50.25
48926;BME280;39838;59.938;30.642;2023-09-08T11:46:17;101172.75;;;20.98;50.75
48926;BME280;39838;59.938;30.642;2023-09-08T11:48:46;101172.75;;;21.00;50.69
48926;BME280;39838;59.938;30.642;2023-09-08T11:51:13;101173.69;;;20.97;51.11
48926;BME280;39838;59.938;30.642;2023-09-08T11:53:42;101168.34;;;20.99;50.76
48926;BME280;39838;59.938;30.642;2023-09-08T11:56:11;101171.66;;;21.06;50.86
48926;BME280;39838;59.938;30.642;2023-09-08T11:58:38;101169.72;;;21.11;50.72
48926;BME280;39838;59.938;30.642;2023-09-08T12:01:06;101169.66;;;21.12;50.91
48926;BME280;39838;59.938;30.642;2023-09-08T12:03:33;101171.19;;;21.19;50.36
48926;BME280;39838;59.938;30.642;2023-09-08T12:06:01;101164.78;;;21.28;50.17
48926;BME280;39838;59.938;30.642;2023-09-08T12:08:29;101162.81;;;21.35;50.16
48926;BME280;39838;59.938;30.642;2023-09-08T12:10:58;101171.84;;;21.52;50.30
48926;BME280;39838;59.938;30.642;2023-09-08T12:13:25;101173.22;;;21.64;49.89
48926;BME280;39838;59.938;30.642;2023-09-08T12:15:52;101185.09;;;21.77;49.34
48926;BME280;39838;59.938;30.642;2023-09-08T12:18:37;101176.34;;;21.75;49.09
48926;BME280;39838;59.938;30.642;2023-09-08T12:21:04;101175.38;;;21.78;48.88
48926;BME280;39838;59.938;30.642;2023-09-08T12:23:32;101173.72;;;21.75;48.76
48926;BME280;39838;59.938;30.642;2023-09-08T12:26:01;101179.56;;;21.59;48.76
48926;BME280;39838;59.938;30.642;2023-09-08T12:28:30;101173.16;;;21.41;48.79
48926;BME280;39838;59.938;30.642;2023-09-08T12:30:59;101177.19;;;21.24;49.06
48926;BME280;39838;59.938;30.642;2023-09-08T12:33:26;101183.53;;;21.19;49.10
48926;BME280;39838;59.938;30.642;2023-09-08T12:35:54;101175.06;;;21.09;49.27
48926;BME280;39838;59.938;30.642;2023-09-08T12:38:21;101175.97;;;21.08;49.66
48926;BME280;39838;59.938;30.642;2023-09-08T12:40:49;101169.66;;;21.12;50.05
48926;BME280;39838;59.938;30.642;2023-09-08T12:43:18;101173.94;;;21.16;50.50
48926;BME280;39838;59.938;30.642;2023-09-08T12:45:45;101179.72;;;21.29;51.19